createdAt,value
2022-10-23T00:00:01.632Z,101047.34
2022-10-23T00:02:33.660Z,101054.47
2022-10-23T00:05:03.781Z,101046.81
2022-10-23T00:07:33.723Z,101045.69
2022-10-23T00:10:04.841Z,101056.28
2022-10-23T00:12:35.050Z,101049.06
2022-10-23T00:15:06.179Z,101055.16
2022-10-23T00:17:36.322Z,101055.06
2022-10-23T00:20:09.031Z,101054.66
2022-10-23T00:22:39.800Z,101054.84
2022-10-23T00:25:12.191Z,101057.84
2022-10-23T00:27:42.374Z,101069.94
2022-10-23T00:30:14.114Z,101061.81
2022-10-23T00:32:44.190Z,101060.25
2022-10-23T00:35:14.881Z,101060.19
2022-10-23T00:37:46.408Z,101057.97
2022-10-23T00:40:19.810Z,101059.94
2022-10-23T00:42:49.893Z,101050.19
2022-10-23T00:45:27.792Z,101058.44
2022-10-23T00:47:58.030Z,101058.34
2022-10-23T00:50:31.890Z,101051.88
2022-10-23T00:53:04.871Z,101048.28
2022-10-23T00:55:37.281Z,101056.91
2022-10-23T00:58:08.463Z,101055.63
2022-10-23T01:00:58.284Z,101049.59
2022-10-23T01:03:30.365Z,101046.25
2022-10-23T01:06:22.880Z,101052.72
2022-10-23T01:09:02.216Z,101047.66
2022-10-23T01:11:48.373Z,101053.25
2022-10-23T01:14:37.188Z,101057.59
2022-10-23T01:17:28.175Z,101047.22
2022-10-23T01:20:26.073Z,101046.38
2022-10-23T01:23:21.665Z,101047.34
2022-10-23T01:26:11.096Z,101054.97
2022-10-23T01:28:50.216Z,101052.34
2022-10-23T01:31:34.213Z,101036.78
2022-10-23T01:34:16.743Z,101040.09
2022-10-23T01:36:51.177Z,101037.53
2022-10-23T01:39:32.951Z,101044.13
2022-10-23T01:42:14.623Z,101034.28
2022-10-23T01:45:07.796Z,101032.06
2022-10-23T01:47:47.130Z,101030.22
2022-10-23T01:50:22.017Z,101024.06
2022-10-23T01:52:58.176Z,101025.06
2022-10-23T01:55:29.097Z,101018.94
2022-10-23T01:58:03.879Z,101029.44
2022-10-23T02:00:42.501Z,101032.41
2022-10-23T02:03:14.854Z,101027.75
2022-10-23T02:05:46.652Z,101024.16
2022-10-23T02:08:16.920Z,101022.13
2022-10-23T02:10:53.896Z,101020.81
2022-10-23T02:13:39.319Z,101014.22
2022-10-23T02:16:36.530Z,101015.47
2022-10-23T02:19:34.819Z,101016.38
2022-10-23T02:22:19.138Z,101016.84
2022-10-23T02:24:57.498Z,101013.81
2022-10-23T02:27:38.779Z,101012.09
2022-10-23T02:30:16.860Z,101007.81
2022-10-23T02:32:57.063Z,101006.38
2022-10-23T02:35:27.809Z,100998.00
2022-10-23T02:38:33.447Z,100996.75
2022-10-23T02:41:28.908Z,100977.16
2022-10-23T02:44:02.025Z,100988.56
2022-10-23T02:46:57.895Z,100991.53
2022-10-23T02:50:06.529Z,100984.56
2022-10-23T02:53:20.838Z,100983.31
2022-10-23T02:56:09.857Z,100983.00
2022-10-23T02:58:42.481Z,100978.97
2022-10-23T03:01:28.128Z,100976.56
2022-10-23T03:04:04.556Z,100973.72
2022-10-23T03:06:35.251Z,100982.56
2022-10-23T03:09:10.334Z,100981.03
2022-10-23T03:11:41.722Z,100971.13
2022-10-23T03:14:16.474Z,100947.81
2022-10-23T03:16:47.634Z,100959.53
2022-10-23T03:19:17.625Z,100961.44
2022-10-23T03:21:48.064Z,100959.84
2022-10-23T03:24:18.019Z,100956.31
2022-10-23T03:26:48.934Z,100953.31
2022-10-23T03:29:18.940Z,100937.06
2022-10-23T03:31:49.486Z,100944.09
2022-10-23T03:34:20.487Z,100942.63
2022-10-23T03:36:51.007Z,100940.97
2022-10-23T03:39:23.835Z,100937.47
2022-10-23T03:41:54.301Z,100928.22
2022-10-23T03:44:24.361Z,100920.56
2022-10-23T03:46:54.845Z,100917.06
2022-10-23T03:49:24.698Z,100913.56
2022-10-23T03:51:55.199Z,100920.09
2022-10-23T03:54:27.624Z,100918.97
2022-10-23T03:56:58.889Z,100918.75
2022-10-23T03:59:29.768Z,100915.28
2022-10-23T04:02:01.414Z,100897.09
2022-10-23T04:04:31.663Z,100903.22
2022-10-23T04:07:02.399Z,100908.31
2022-10-23T04:09:32.393Z,100908.31
2022-10-23T04:12:02.353Z,100900.25
2022-10-23T04:14:32.462Z,100895.25
2022-10-23T04:17:02.967Z,100894.75
2022-10-23T04:19:33.127Z,100887.81
2022-10-23T04:22:03.516Z,100892.75
2022-10-23T04:24:33.607Z,100884.50
2022-10-23T04:27:04.579Z,100879.75
2022-10-23T04:29:34.574Z,100882.72
2022-10-23T04:32:05.323Z,100876.16
2022-10-23T04:34:35.456Z,100877.03
2022-10-23T04:37:07.286Z,100871.63
2022-10-23T04:39:37.912Z,100867.69
2022-10-23T04:42:08.335Z,100864.69
2022-10-23T04:44:38.331Z,100855.31
2022-10-23T04:47:10.625Z,100853.69
2022-10-23T04:49:49.615Z,100857.78
2022-10-23T04:52:42.997Z,100855.84
2022-10-23T04:55:52.998Z,100852.84
2022-10-23T04:58:29.391Z,100858.13
2022-10-23T05:01:00.755Z,100855.50
2022-10-23T05:03:32.178Z,100852.69
2022-10-23T05:06:02.159Z,100850.53
2022-10-23T05:08:52.650Z,100848.94
2022-10-23T05:11:52.533Z,100845.34
2022-10-23T05:14:23.886Z,100847.47
2022-10-23T05:17:10.558Z,100840.22
2022-10-23T05:19:46.812Z,100834.03
2022-10-23T05:22:18.324Z,100829.03
2022-10-23T05:24:51.390Z,100828.69
2022-10-23T05:27:26.335Z,100837.84
2022-10-23T05:30:01.749Z,100831.38
2022-10-23T05:32:37.667Z,100836.63
2022-10-23T05:35:18.986Z,100831.16
2022-10-23T05:37:53.168Z,100831.41
2022-10-23T05:40:31.503Z,100844.53
2022-10-23T05:43:09.299Z,100838.38
2022-10-23T05:45:50.182Z,100833.97
2022-10-23T05:48:34.322Z,100847.25
2022-10-23T05:51:26.191Z,100840.63
2022-10-23T05:54:11.573Z,100831.06
2022-10-23T05:56:51.275Z,100837.91
2022-10-23T05:59:46.864Z,100831.25
2022-10-23T06:02:42.035Z,100829.59
2022-10-23T06:05:29.834Z,100831.31
2022-10-23T06:08:17.755Z,100832.84
2022-10-23T06:10:51.378Z,100834.69
2022-10-23T06:13:21.204Z,100832.28
2022-10-23T06:15:51.808Z,100823.13
2022-10-23T06:18:24.642Z,100831.25
2022-10-23T06:21:03.474Z,100830.13
2022-10-23T06:23:37.566Z,100832.56
2022-10-23T06:26:22.826Z,100836.72
2022-10-23T06:29:08.791Z,100832.34
2022-10-23T06:31:40.320Z,100835.00
2022-10-23T06:34:13.563Z,100834.25
2022-10-23T06:36:44.816Z,100836.53
2022-10-23T06:39:41.652Z,100838.72
2022-10-23T06:42:21.676Z,100843.44
2022-10-23T06:45:01.128Z,100845.13
2022-10-23T06:47:54.286Z,100844.13
2022-10-23T06:50:38.120Z,100844.19
2022-10-23T06:53:17.995Z,100843.91
2022-10-23T06:55:55.478Z,100835.34
2022-10-23T06:58:27.005Z,100839.47
2022-10-23T07:01:08.835Z,100829.38
2022-10-23T07:03:39.419Z,100835.53
2022-10-23T07:06:12.830Z,100831.66
2022-10-23T07:08:43.310Z,100839.03
2022-10-23T07:11:33.451Z,100854.00
2022-10-23T07:14:04.703Z,100853.63
2022-10-23T07:16:35.521Z,100864.63
2022-10-23T07:19:07.964Z,100858.53
2022-10-23T07:21:57.527Z,100868.59
2022-10-23T07:24:50.498Z,100863.38
2022-10-23T07:27:28.683Z,100869.34
2022-10-23T07:30:03.054Z,100878.66
2022-10-23T07:32:38.267Z,100888.28
2022-10-23T07:35:10.097Z,100882.59
2022-10-23T07:37:43.666Z,100883.56
2022-10-23T07:40:15.301Z,100877.22
2022-10-23T07:42:48.989Z,100880.66
2022-10-23T07:45:20.647Z,100880.16
2022-10-23T07:47:56.211Z,100891.19
2022-10-23T07:50:31.219Z,100883.06
2022-10-23T07:53:01.291Z,100881.81
2022-10-23T07:55:41.003Z,100879.09
2022-10-23T07:58:16.040Z,100880.81
2022-10-23T08:01:04.410Z,100874.00
2022-10-23T08:03:38.380Z,100874.22
2022-10-23T08:06:09.183Z,100879.41
2022-10-23T08:08:39.497Z,100882.88
2022-10-23T08:11:14.899Z,100879.91
2022-10-23T08:13:57.112Z,100885.09
2022-10-23T08:16:29.787Z,100888.06
2022-10-23T08:19:10.510Z,100892.94
2022-10-23T08:21:42.961Z,100892.72
2022-10-23T08:24:15.288Z,100884.34
2022-10-23T08:26:50.055Z,100892.47
2022-10-23T08:29:24.130Z,100893.22
2022-10-23T08:31:58.515Z,100898.63
2022-10-23T08:35:07.522Z,100895.91
2022-10-23T08:37:38.967Z,100899.34
2022-10-23T08:40:21.441Z,100900.59
2022-10-23T08:43:36.665Z,100902.31
2022-10-23T08:46:28.485Z,100909.94
2022-10-23T08:49:24.404Z,100913.34
2022-10-23T08:52:28.130Z,100921.44
2022-10-23T08:55:22.584Z,100919.53
2022-10-23T08:58:19.080Z,100926.13
2022-10-23T09:00:50.981Z,100922.91
2022-10-23T09:03:21.766Z,100925.84
2022-10-23T09:06:18.175Z,100925.31
2022-10-23T09:09:18.026Z,100922.13
2022-10-23T09:12:27.282Z,100933.06
2022-10-23T09:15:14.481Z,100938.88
2022-10-23T09:17:46.174Z,100943.59
2022-10-23T09:20:26.210Z,100938.00
2022-10-23T09:23:14.502Z,100946.78
2022-10-23T09:25:45.457Z,100933.59
2022-10-23T09:28:28.911Z,100952.22
2022-10-23T09:31:13.679Z,100953.06
2022-10-23T09:33:54.446Z,100947.72
2022-10-23T09:36:27.112Z,100953.44
2022-10-23T09:39:00.698Z,100961.84
2022-10-23T09:41:41.440Z,100964.13
2022-10-23T09:44:29.769Z,100976.16
2022-10-23T09:47:22.261Z,100980.72
2022-10-23T09:49:54.750Z,100990.47
2022-10-23T09:52:31.357Z,100988.78
2022-10-23T09:55:03.971Z,100998.56
2022-10-23T09:57:54.404Z,101005.06
2022-10-23T10:00:27.463Z,101009.16
2022-10-23T10:03:03.491Z,101008.72
2022-10-23T10:06:06.663Z,101021.75
2022-10-23T10:08:48.901Z,101026.09
2022-10-23T10:11:23.792Z,101016.19
2022-10-23T10:13:59.078Z,101025.44
2022-10-23T10:19:11.043Z,101036.00
2022-10-23T10:21:49.471Z,101032.34
2022-10-23T10:24:40.546Z,101035.19
2022-10-23T10:27:28.963Z,101041.34
2022-10-23T10:30:20.258Z,101032.81
2022-10-23T10:32:52.931Z,101056.19
2022-10-23T10:36:02.513Z,101052.56
2022-10-23T10:38:53.009Z,101051.25
2022-10-23T10:42:03.696Z,101065.88
2022-10-23T10:45:05.519Z,101060.91
2022-10-23T10:48:09.004Z,101057.09
2022-10-23T10:51:01.683Z,101058.41
2022-10-23T10:54:06.472Z,101051.66
2022-10-23T10:56:43.904Z,101067.72
2022-10-23T10:59:20.099Z,101057.94
2022-10-23T11:02:01.217Z,101061.84
2022-10-23T11:05:09.746Z,101061.97
2022-10-23T11:07:49.642Z,101067.75
2022-10-23T11:10:21.095Z,101068.63
2022-10-23T11:12:52.211Z,101076.03
2022-10-23T11:15:41.477Z,101078.09
2022-10-23T11:18:23.332Z,101082.56
2022-10-23T11:21:01.418Z,101082.81
2022-10-23T11:27:04.457Z,101081.84
2022-10-23T11:29:59.011Z,101083.53
2022-10-23T11:32:50.955Z,101092.03
2022-10-23T11:35:50.502Z,101090.78
2022-10-23T11:38:31.302Z,101101.03
2022-10-23T11:41:34.911Z,101112.53
2022-10-23T11:44:06.805Z,101115.72
2022-10-23T11:46:40.261Z,101121.38
2022-10-23T11:49:23.085Z,101120.28
2022-10-23T11:52:02.646Z,101123.88
2022-10-23T11:54:34.091Z,101124.28
2022-10-23T11:57:12.623Z,101124.03
2022-10-23T11:59:55.132Z,101127.16
2022-10-23T12:02:37.864Z,101127.19
2022-10-23T12:05:28.093Z,101138.56
2022-10-23T12:08:00.261Z,101145.34
2022-10-23T12:10:49.272Z,101141.69
2022-10-23T12:13:33.430Z,101141.44
2022-10-23T12:16:06.070Z,101148.81
2022-10-23T12:18:48.847Z,101142.25
2022-10-23T12:21:23.315Z,101142.69
2022-10-23T12:24:04.855Z,101153.47
2022-10-23T12:27:22.966Z,101146.34
2022-10-23T12:30:00.481Z,101152.97
2022-10-23T12:33:02.652Z,101138.91
2022-10-23T12:35:35.468Z,101154.22
2022-10-23T12:38:35.329Z,101139.63
2022-10-23T12:41:20.939Z,101147.88
2022-10-23T12:44:04.364Z,101141.75
2022-10-23T12:46:38.318Z,101145.91
2022-10-23T12:49:21.462Z,101145.78
2022-10-23T12:52:02.305Z,101147.22
2022-10-23T12:54:35.143Z,101151.16
2022-10-23T12:57:23.170Z,101159.38
2022-10-23T13:00:00.569Z,101145.00
2022-10-23T13:02:32.855Z,101151.78
2022-10-23T13:05:09.504Z,101147.09
2022-10-23T13:07:48.954Z,101141.94
2022-10-23T13:10:26.915Z,101144.28
2022-10-23T13:13:06.747Z,101144.56
2022-10-23T13:15:41.286Z,101136.59
2022-10-23T13:18:15.289Z,101150.88
2022-10-23T13:20:58.953Z,101155.38
2022-10-23T13:23:35.038Z,101143.84
2022-10-23T13:26:46.271Z,101150.22
2022-10-23T13:29:27.135Z,101145.38
2022-10-23T13:31:57.763Z,101133.53
2022-10-23T13:34:32.211Z,101141.53
2022-10-23T13:37:23.405Z,101141.69
2022-10-23T13:40:38.157Z,101138.88
2022-10-23T13:43:17.517Z,101146.19
2022-10-23T13:45:47.991Z,101133.63
2022-10-23T13:48:19.176Z,101132.72
2022-10-23T13:50:49.167Z,101140.56
2022-10-23T13:53:19.713Z,101127.94
2022-10-23T13:55:56.222Z,101123.53
2022-10-23T13:58:29.073Z,101130.97
2022-10-23T14:01:00.762Z,101133.50
2022-10-23T14:03:33.598Z,101122.22
2022-10-23T14:06:03.664Z,101127.22
2022-10-23T14:08:34.027Z,101121.13
2022-10-23T14:11:04.057Z,101110.06
2022-10-23T14:13:34.484Z,101119.91
2022-10-23T14:16:04.944Z,101107.84
2022-10-23T14:18:35.756Z,101112.47
2022-10-23T14:21:08.970Z,101116.19
2022-10-23T14:23:39.602Z,101120.53
2022-10-23T14:26:12.903Z,101116.78
2022-10-23T14:28:46.605Z,101113.88
2022-10-23T14:31:19.241Z,101104.44
2022-10-23T14:33:55.116Z,101105.00
2022-10-23T14:36:28.319Z,101101.88
2022-10-23T14:39:05.153Z,101109.13
2022-10-23T14:41:35.097Z,101113.38
2022-10-23T14:44:05.460Z,101108.47
2022-10-23T14:46:36.776Z,101105.97
2022-10-23T14:49:07.509Z,101098.59
2022-10-23T14:51:37.558Z,101100.28
2022-10-23T14:54:09.165Z,101090.97
2022-10-23T14:56:43.486Z,101089.69
2022-10-23T14:59:16.343Z,101079.66
2022-10-23T15:01:48.450Z,101081.19
2022-10-23T15:04:19.207Z,101089.41
2022-10-23T15:06:49.237Z,101074.47
2022-10-23T15:09:25.414Z,101080.34
2022-10-23T15:11:55.431Z,101079.09
2022-10-23T15:14:25.798Z,101075.53
2022-10-23T15:16:55.618Z,101069.31
2022-10-23T15:19:26.323Z,101073.16
2022-10-23T15:21:56.356Z,101069.25
2022-10-23T15:24:27.767Z,101076.47
2022-10-23T15:27:01.348Z,101070.94
2022-10-23T15:29:31.711Z,101067.19
2022-10-23T15:32:03.033Z,101060.66
2022-10-23T15:34:37.406Z,101066.66
2022-10-23T15:37:07.598Z,101057.97
2022-10-23T15:39:38.062Z,101054.25
2022-10-23T15:42:08.434Z,101052.34
2022-10-23T15:44:40.906Z,101041.72
2022-10-23T15:47:10.902Z,101044.00
2022-10-23T15:49:41.399Z,101029.78
2022-10-23T15:52:12.328Z,101045.19
2022-10-23T15:54:42.919Z,101047.09
2022-10-23T15:57:12.927Z,101042.75
2022-10-23T15:59:43.371Z,101034.84
2022-10-23T16:02:14.065Z,101035.47
2022-10-23T16:04:44.691Z,101040.94
2022-10-23T16:07:14.643Z,101035.66
2022-10-23T16:09:44.573Z,101022.78
2022-10-23T16:12:14.924Z,101019.75
2022-10-23T16:14:44.914Z,101017.72
2022-10-23T16:20:05.739Z,101018.19
2022-10-23T16:22:36.088Z,101008.81
2022-10-23T16:25:09.851Z,101010.81
2022-10-23T16:27:41.756Z,101019.44
2022-10-23T16:30:17.590Z,101012.25
2022-10-23T16:32:49.075Z,101013.69
2022-10-23T16:35:19.122Z,101011.13
2022-10-23T16:38:01.531Z,100999.34
2022-10-23T16:40:31.737Z,100993.19
2022-10-23T16:43:20.195Z,100994.34
2022-10-23T16:46:23.481Z,100986.13
2022-10-23T16:48:55.606Z,100977.06
2022-10-23T16:51:29.061Z,100973.09
2022-10-23T16:53:59.858Z,100962.28
2022-10-23T16:56:31.336Z,100965.84
2022-10-23T16:59:01.711Z,100946.38
2022-10-23T17:01:33.154Z,100954.09
2022-10-23T17:04:03.761Z,100955.81
2022-10-23T17:06:34.831Z,100957.03
2022-10-23T17:09:09.359Z,100939.56
2022-10-23T17:11:41.531Z,100941.53
2022-10-23T17:14:18.673Z,100942.72
2022-10-23T17:16:53.511Z,100929.44
2022-10-23T17:22:17.780Z,100939.91
2022-10-23T17:24:50.299Z,100927.72
2022-10-23T17:27:23.731Z,100923.41
2022-10-23T17:29:53.682Z,100924.88
2022-10-23T17:32:23.509Z,100933.31
2022-10-23T17:34:54.006Z,100923.09
2022-10-23T17:37:23.991Z,100915.69
2022-10-23T17:39:54.425Z,100916.63
2022-10-23T17:42:24.469Z,100911.09
2022-10-23T17:44:54.809Z,100912.03
2022-10-23T17:47:24.622Z,100909.00
2022-10-23T17:49:54.983Z,100913.25
2022-10-23T17:52:25.001Z,100908.84
2022-10-23T17:54:55.386Z,100905.28
2022-10-23T17:57:25.382Z,100915.44
2022-10-23T17:59:55.771Z,100908.75
2022-10-23T18:02:26.109Z,100896.13
2022-10-23T18:04:56.556Z,100905.34
2022-10-23T18:07:29.663Z,100912.03
2022-10-23T18:10:00.005Z,100874.66
2022-10-23T18:12:30.635Z,100902.06
2022-10-23T18:15:02.040Z,100905.72
2022-10-23T18:17:31.980Z,100894.19
2022-10-23T18:20:02.489Z,100908.09
2022-10-23T18:22:36.266Z,100916.34
2022-10-23T18:25:07.065Z,100915.19
2022-10-23T18:27:37.176Z,100915.50
2022-10-23T18:30:08.844Z,100919.34
2022-10-23T18:32:38.951Z,100913.88
2022-10-23T18:35:09.823Z,100919.41
2022-10-23T18:37:41.538Z,100921.97
2022-10-23T18:40:14.357Z,100918.16
2022-10-23T18:42:44.644Z,100918.41
2022-10-23T18:45:15.437Z,100908.69
2022-10-23T18:47:45.999Z,100925.09
2022-10-23T18:50:17.235Z,100924.38
2022-10-23T18:52:47.361Z,100925.00
2022-10-23T18:55:17.691Z,100925.66
2022-10-23T18:57:47.554Z,100928.59
2022-10-23T19:00:18.080Z,100938.94
2022-10-23T19:02:52.186Z,100928.75
2022-10-23T19:05:23.129Z,100936.41
2022-10-23T19:07:53.375Z,100933.72
2022-10-23T19:10:24.437Z,100938.81
2022-10-23T19:12:54.517Z,100931.50
2022-10-23T19:15:24.973Z,100946.81
2022-10-23T19:17:55.006Z,100929.66
2022-10-23T19:20:25.487Z,100946.47
2022-10-23T19:22:57.821Z,100935.25
2022-10-23T19:25:34.894Z,100942.97
2022-10-23T19:28:06.154Z,100939.78
2022-10-23T19:30:36.714Z,100938.19
2022-10-23T19:33:06.743Z,100954.78
2022-10-23T19:35:36.538Z,100953.59
2022-10-23T19:38:07.049Z,100949.69
2022-10-23T19:40:37.113Z,100951.41
2022-10-23T19:43:07.582Z,100963.09
2022-10-23T19:45:38.633Z,100956.72
2022-10-23T19:48:09.965Z,100964.00
2022-10-23T19:50:41.335Z,100959.41
2022-10-23T19:53:11.829Z,100970.22
2022-10-23T19:55:41.599Z,100975.34
2022-10-23T19:58:12.086Z,100976.06
2022-10-23T20:00:42.076Z,100988.41
2022-10-23T20:03:12.501Z,100990.16
2022-10-23T20:05:46.932Z,100982.25
2022-10-23T20:08:17.399Z,100989.75
2022-10-23T20:10:49.028Z,100987.72
2022-10-23T20:13:20.485Z,100998.03
2022-10-23T20:15:50.675Z,100989.31
2022-10-23T20:18:20.487Z,101000.59
2022-10-23T20:20:51.570Z,101008.50
2022-10-23T20:23:22.312Z,101014.09
2022-10-23T20:25:52.631Z,101019.22
2022-10-23T20:28:22.919Z,101022.59
2022-10-23T20:30:52.689Z,101029.72
2022-10-23T20:33:22.385Z,101032.00
2022-10-23T20:35:51.959Z,101037.31
2022-10-23T20:38:24.581Z,101030.16
2022-10-23T20:40:58.803Z,101036.66
2022-10-23T20:43:29.770Z,101050.28
2022-10-23T20:46:03.984Z,101044.88
2022-10-23T20:48:39.260Z,101042.31
2022-10-23T20:51:18.245Z,101023.53
2022-10-23T20:53:49.370Z,101044.44
2022-10-23T20:56:32.345Z,101057.03
2022-10-23T20:59:12.100Z,101052.38
2022-10-23T21:01:44.872Z,101052.09
2022-10-23T21:04:16.242Z,101069.22
2022-10-23T21:07:08.317Z,101070.59
2022-10-23T21:09:36.915Z,101075.59
2022-10-23T21:12:07.525Z,101075.94
2022-10-23T21:14:38.178Z,101084.59
2022-10-23T21:17:09.940Z,101079.91
2022-10-23T21:19:41.120Z,101080.94
2022-10-23T21:22:11.191Z,101095.13
2022-10-23T21:24:41.995Z,101092.69
2022-10-23T21:27:12.204Z,101098.56
2022-10-23T21:29:42.757Z,101103.50
2022-10-23T21:32:12.710Z,101116.03
2022-10-23T21:34:42.598Z,101118.25
2022-10-23T21:37:14.231Z,101112.38
2022-10-23T21:39:48.117Z,101109.38
2022-10-23T21:42:19.516Z,101120.09
2022-10-23T21:44:49.565Z,101114.84
2022-10-23T21:47:19.889Z,101124.50
2022-10-23T21:49:50.962Z,101130.75
2022-10-23T21:52:21.788Z,101133.03
2022-10-23T21:54:55.268Z,101130.34
2022-10-23T21:57:33.231Z,101144.09
2022-10-23T22:00:03.441Z,101145.50
2022-10-23T22:02:51.013Z,101144.31
2022-10-23T22:05:21.343Z,101113.50
2022-10-23T22:07:52.525Z,101155.47
2022-10-23T22:10:23.655Z,101146.63
2022-10-23T22:12:54.110Z,101151.53
2022-10-23T22:15:24.228Z,101163.41
2022-10-23T22:17:55.819Z,101168.59
2022-10-23T22:20:28.054Z,101163.16
2022-10-23T22:23:01.850Z,101167.38
2022-10-23T22:25:32.333Z,101170.81
2022-10-23T22:28:02.704Z,101175.75
2022-10-23T22:30:35.091Z,101181.91
2022-10-23T22:33:05.956Z,101197.63
2022-10-23T22:35:36.040Z,101191.78
2022-10-23T22:38:06.678Z,101192.97
2022-10-23T22:40:44.341Z,101193.72
2022-10-23T22:43:20.213Z,101198.91
2022-10-23T22:45:55.131Z,101195.19
2022-10-23T22:48:27.659Z,101208.28
2022-10-23T22:50:59.473Z,101206.06
2022-10-23T22:53:30.652Z,101212.53
2022-10-23T22:56:00.832Z,101203.56
2022-10-23T22:58:31.445Z,101213.53
2022-10-23T23:01:12.998Z,101225.75
2022-10-23T23:03:47.216Z,101220.22
2022-10-23T23:06:17.878Z,101232.78
2022-10-23T23:08:49.501Z,101224.34
2022-10-23T23:11:21.835Z,101227.81
2022-10-23T23:13:53.117Z,101234.25
2022-10-23T23:16:26.151Z,101237.28
2022-10-23T23:19:01.271Z,101245.72
2022-10-23T23:21:34.454Z,101242.91
2022-10-23T23:24:06.026Z,101244.84
2022-10-23T23:26:40.431Z,101252.34
2022-10-23T23:29:10.459Z,101247.72
2022-10-23T23:31:41.191Z,101256.13
2022-10-23T23:34:10.754Z,101256.22
2022-10-23T23:36:40.563Z,101261.97
2022-10-23T23:39:12.166Z,101257.06
2022-10-23T23:41:45.305Z,101263.97
2022-10-23T23:44:16.952Z,101266.56
2022-10-23T23:46:50.204Z,101273.94
2022-10-23T23:49:20.906Z,101270.00
2022-10-23T23:51:50.457Z,101276.91
2022-10-23T23:54:20.298Z,101278.38
2022-10-23T23:56:50.777Z,101277.63
2022-10-23T23:59:20.635Z,101284.22
